sensor_id;sensor_type;location;lat;lon;timestamp;P1;P2;P0
68341;PMS7003;55668;52.310;21.066;2022-10-16T00:03:10;20;20;
68341;PMS7003;55668;52.310;21.066;2022-10-16T00:32:26;20;20;
68341;PMS7003;55668;52.310;21.066;2022-10-16T00:48:12;24;23;
68341;PMS7003;55668;52.310;21.066;2022-10-16T01:03:24;25;23;
68341;PMS7003;55668;52.310;21.066;2022-10-16T01:20:50;22;21;
68341;PMS7003;55668;52.310;21.066;2022-10-16T01:33:35;21;21;
68341;PMS7003;55668;52.310;21.066;2022-10-16T02:05:54;20;20;
68341;PMS7003;55668;52.310;21.066;2022-10-16T02:19:39;20;20;
68341;PMS7003;55668;52.310;21.066;2022-10-16T02:38:27;21;21;
68341;PMS7003;55668;52.310;21.066;2022-10-16T02:50:43;20;20;
68341;PMS7003;55668;52.310;21.066;2022-10-16T03:07:07;21;20;
68341;PMS7003;55668;52.310;21.066;2022-10-16T03:21:28;23;23;
68341;PMS7003;55668;52.310;21.066;2022-10-16T03:53:49;28;28;
68341;PMS7003;55668;52.310;21.066;2022-10-16T04:07:04;29;28;
68341;PMS7003;55668;52.310;21.066;2022-10-16T04:22:43;28;28;
68341;PMS7003;55668;52.310;21.066;2022-10-16T04:41:55;25;25;
68341;PMS7003;55668;52.310;21.066;2022-10-16T04:55:44;30;28;
68341;PMS7003;55668;52.310;21.066;2022-10-16T05:40:19;28;26;
68341;PMS7003;55668;52.310;21.066;2022-10-16T06:25:09;26;24;
68341;PMS7003;55668;52.310;21.066;2022-10-16T06:40:44;24;24;
68341;PMS7003;55668;52.310;21.066;2022-10-16T06:58:03;26;26;
68341;PMS7003;55668;52.310;21.066;2022-10-16T07:12:28;26;26;
68341;PMS7003;55668;52.310;21.066;2022-10-16T07:27:14;59;49;
68341;PMS7003;55668;52.310;21.066;2022-10-16T07:45:53;77;72;
68341;PMS7003;55668;52.310;21.066;2022-10-16T07:58:09;73;65;
68341;PMS7003;55668;52.310;21.066;2022-10-16T08:14:25;65;53;
68341;PMS7003;55668;52.310;21.066;2022-10-16T08:28:14;56;47;
68341;PMS7003;55668;52.310;21.066;2022-10-16T08:45:34;43;38;
68341;PMS7003;55668;52.310;21.066;2022-10-16T08:58:58;41;36;
68341;PMS7003;55668;52.310;21.066;2022-10-16T09:15:05;34;32;
68341;PMS7003;55668;52.310;21.066;2022-10-16T09:29:46;26;26;
68341;PMS7003;55668;52.310;21.066;2022-10-16T09:45:31;30;30;
68341;PMS7003;55668;52.310;21.066;2022-10-16T10:00:49;25;25;
68341;PMS7003;55668;52.310;21.066;2022-10-16T10:17:14;21;21;
68341;PMS7003;55668;52.310;21.066;2022-10-16T10:31:14;25;24;
68341;PMS7003;55668;52.310;21.066;2022-10-16T10:46:32;29;25;
68341;PMS7003;55668;52.310;21.066;2022-10-16T11:01:52;27;27;
68341;PMS7003;55668;52.310;21.066;2022-10-16T11:18:55;27;27;
68341;PMS7003;55668;52.310;21.066;2022-10-16T11:34:02;23;23;
68341;PMS7003;55668;52.310;21.066;2022-10-16T11:48:10;25;24;
68341;PMS7003;55668;52.310;21.066;2022-10-16T12:03:33;22;21;
68341;PMS7003;55668;52.310;21.066;2022-10-16T12:20:21;22;22;
68341;PMS7003;55668;52.310;21.066;2022-10-16T12:34:20;21;21;
68341;PMS7003;55668;52.310;21.066;2022-10-16T12:49:29;24;24;
68341;PMS7003;55668;52.310;21.066;2022-10-16T13:07:36;20;20;
68341;PMS7003;55668;52.310;21.066;2022-10-16T13:20:03;21;21;
68341;PMS7003;55668;52.310;21.066;2022-10-16T13:37:41;25;25;
68341;PMS7003;55668;52.310;21.066;2022-10-16T13:51:55;23;23;
68341;PMS7003;55668;52.310;21.066;2022-10-16T14:12:18;23;22;
68341;PMS7003;55668;52.310;21.066;2022-10-16T14:21:44;25;23;
68341;PMS7003;55668;52.310;21.066;2022-10-16T15:07:53;23;21;
68341;PMS7003;55668;52.310;21.066;2022-10-16T15:27:24;19;19;
68341;PMS7003;55668;52.310;21.066;2022-10-16T15:39:35;21;20;
68341;PMS7003;55668;52.310;21.066;2022-10-16T15:57:09;22;22;
68341;PMS7003;55668;52.310;21.066;2022-10-16T16:09:22;21;21;
68341;PMS7003;55668;52.310;21.066;2022-10-16T16:24:32;18;18;
68341;PMS7003;55668;52.310;21.066;2022-10-16T16:30:50;unavailable;unavailable;
68341;PMS7003;55668;52.310;21.066;2022-10-16T16:44:10;20;20;
68341;PMS7003;55668;52.310;21.066;2022-10-16T17:02:40;22;22;
68341;PMS7003;55668;52.310;21.066;2022-10-16T17:11:18;21;21;
68341;PMS7003;55668;52.310;21.066;2022-10-16T17:29:37;20;20;
68341;PMS7003;55668;52.310;21.066;2022-10-16T17:44:22;22;22;
68341;PMS7003;55668;52.310;21.066;2022-10-16T17:59:46;32;31;
68341;PMS7003;55668;52.310;21.066;2022-10-16T18:13:16;29;29;
68341;PMS7003;55668;52.310;21.066;2022-10-16T18:27:26;28;28;
68341;PMS7003;55668;52.310;21.066;2022-10-16T18:44:08;29;27;
68341;PMS7003;55668;52.310;21.066;2022-10-16T18:59:10;23;23;
68341;PMS7003;55668;52.310;21.066;2022-10-16T19:30:03;22;22;
68341;PMS7003;55668;52.310;21.066;2022-10-16T19:59:30;21;21;
68341;PMS7003;55668;52.310;21.066;2022-10-16T20:14:47;24;24;
68341;PMS7003;55668;52.310;21.066;2022-10-16T20:31:14;20;20;
68341;PMS7003;55668;52.310;21.066;2022-10-16T21:02:26;24;23;
68341;PMS7003;55668;52.310;21.066;2022-10-16T21:16:40;25;25;
68341;PMS7003;55668;52.310;21.066;2022-10-16T21:32:26;23;23;
68341;PMS7003;55668;52.310;21.066;2022-10-16T21:47:27;20;20;
68341;PMS7003;55668;52.310;21.066;2022-10-16T22:18:43;21;21;
68341;PMS7003;55668;52.310;21.066;2022-10-16T22:33:27;22;22;
68341;PMS7003;55668;52.310;21.066;2022-10-16T22:49:49;19;19;
68341;PMS7003;55668;52.310;21.066;2022-10-16T23:04:06;18;18;
68341;PMS7003;55668;52.310;21.066;2022-10-16T23:20:01;20;20;
68341;PMS7003;55668;52.310;21.066;2022-10-16T23:35:00;20;20;
68341;PMS7003;55668;52.310;21.066;2022-10-16T23:51:54;23;23;
